createdAt,value
2019-02-14T00:00:35.586Z,1008.82
2019-02-14T00:01:35.716Z,1008.84
2019-02-14T00:02:35.839Z,1008.82
2019-02-14T00:03:35.959Z,1008.79
2019-02-14T00:04:36.090Z,1008.83
2019-02-14T00:05:36.209Z,1008.83
2019-02-14T00:06:36.324Z,1008.79
2019-02-14T00:07:36.451Z,1008.83
2019-02-14T00:08:36.580Z,1008.83
2019-02-14T00:09:36.705Z,1008.82
2019-02-14T00:10:36.831Z,1008.86
2019-02-14T00:11:36.956Z,1008.84
2019-02-14T00:12:37.081Z,1008.81
2019-02-14T00:13:37.202Z,1008.84
2019-02-14T00:14:37.332Z,1008.76
2019-02-14T00:15:37.446Z,1008.80
2019-02-14T00:16:37.574Z,1008.80
2019-02-14T00:17:37.703Z,1008.79
2019-02-14T00:18:37.827Z,1008.78
2019-02-14T00:19:37.940Z,1008.77
2019-02-14T00:20:38.083Z,1008.78
2019-02-14T00:21:38.207Z,1008.79
2019-02-14T00:22:38.332Z,1008.78
2019-02-14T00:23:38.460Z,1008.78
2019-02-14T00:24:38.582Z,1008.78
2019-02-14T00:25:38.720Z,1008.79
2019-02-14T00:26:38.839Z,1008.80
2019-02-14T00:27:39.091Z,1008.76
2019-02-14T00:28:39.086Z,1008.81
2019-02-14T00:29:39.201Z,1008.81
2019-02-14T00:30:39.329Z,1008.82
2019-02-14T00:31:39.473Z,1008.80
2019-02-14T00:32:39.587Z,1008.81
2019-02-14T00:33:39.706Z,1008.80
2019-02-14T00:34:39.834Z,1008.83
2019-02-14T00:35:39.960Z,1008.76
2019-02-14T00:36:40.083Z,1008.77
2019-02-14T00:37:40.208Z,1008.77
2019-02-14T00:38:40.332Z,1008.76
2019-02-14T00:39:40.459Z,1008.72
2019-02-14T00:40:40.586Z,1008.66
2019-02-14T00:41:40.707Z,1008.65
2019-02-14T00:42:40.833Z,1008.70
2019-02-14T00:43:40.957Z,1008.64
2019-02-14T00:44:41.082Z,1008.70
2019-02-14T00:45:41.211Z,1008.66
2019-02-14T00:46:41.343Z,1008.68
2019-02-14T00:47:41.461Z,1008.74
2019-02-14T00:48:41.587Z,1008.71
2019-02-14T00:49:41.712Z,1008.74
2019-02-14T00:50:41.838Z,1008.72
2019-02-14T00:51:41.965Z,1008.75
2019-02-14T00:52:42.084Z,1008.70
2019-02-14T00:53:42.212Z,1008.73
2019-02-14T00:54:42.334Z,1008.73
2019-02-14T00:55:42.461Z,1008.72
2019-02-14T00:56:42.585Z,1008.70
2019-02-14T00:57:42.702Z,1008.68
2019-02-14T00:58:42.825Z,1008.71
2019-02-14T00:59:42.946Z,1008.73
2019-02-14T01:00:43.070Z,1008.78
2019-02-14T01:01:43.192Z,1008.77
2019-02-14T01:02:43.315Z,1008.77
2019-02-14T01:03:43.440Z,1008.75
2019-02-14T01:04:43.566Z,1008.74
2019-02-14T01:05:43.689Z,1008.69
2019-02-14T01:06:43.813Z,1008.63
2019-02-14T01:07:43.936Z,1008.60
2019-02-14T01:08:44.066Z,1008.61
2019-02-14T01:09:44.197Z,1008.65
2019-02-14T01:10:44.314Z,1008.73
2019-02-14T01:11:44.437Z,1008.70
2019-02-14T01:12:44.573Z,1008.72
2019-02-14T01:13:44.705Z,1008.75
2019-02-14T01:14:44.829Z,1008.71
2019-02-14T01:15:44.961Z,1008.75
2019-02-14T01:16:45.082Z,1008.77
2019-02-14T01:17:45.221Z,1008.77
2019-02-14T01:18:45.341Z,1008.77
2019-02-14T01:19:45.467Z,1008.75
2019-02-14T01:20:45.594Z,1008.69
2019-02-14T01:21:45.720Z,1008.72
2019-02-14T01:22:45.847Z,1008.75
2019-02-14T01:23:45.986Z,1008.80
2019-02-14T01:24:46.105Z,1008.81
2019-02-14T01:25:46.224Z,1008.87
2019-02-14T01:26:46.347Z,1008.87
2019-02-14T01:27:46.473Z,1008.87
2019-02-14T01:28:46.601Z,1008.89
2019-02-14T01:29:46.738Z,1008.94
2019-02-14T01:30:46.850Z,1008.97
2019-02-14T01:31:46.992Z,1008.98
2019-02-14T01:32:47.102Z,1009.00
2019-02-14T01:33:47.232Z,1009.02
2019-02-14T01:34:47.350Z,1008.95
2019-02-14T01:35:47.478Z,1008.95
2019-02-14T01:36:47.593Z,1008.91
2019-02-14T01:37:48.271Z,1008.91
2019-02-14T01:38:47.846Z,1008.92
2019-02-14T01:39:47.970Z,1008.91
2019-02-14T01:40:48.093Z,1008.94
2019-02-14T01:41:48.225Z,1008.92
2019-02-14T01:42:48.347Z,1008.98
2019-02-14T01:43:48.483Z,1008.93
2019-02-14T01:44:48.594Z,1008.92
2019-02-14T01:45:48.721Z,1008.93
2019-02-14T01:46:48.864Z,1008.92
2019-02-14T01:47:48.972Z,1008.94
2019-02-14T01:48:49.089Z,1008.95
2019-02-14T01:49:49.217Z,1008.92
2019-02-14T01:50:49.340Z,1008.95
2019-02-14T01:51:49.462Z,1008.95
2019-02-14T01:52:49.592Z,1008.99
2019-02-14T01:53:49.709Z,1008.96
2019-02-14T01:54:49.845Z,1008.95
2019-02-14T01:55:49.951Z,1008.96
2019-02-14T01:56:50.082Z,1008.97
2019-02-14T01:57:50.207Z,1008.97
2019-02-14T01:58:50.333Z,1008.95
2019-02-14T01:59:50.454Z,1008.90
2019-02-14T02:00:50.575Z,1008.92
2019-02-14T02:01:50.701Z,1008.95
2019-02-14T02:02:50.826Z,1008.91
2019-02-14T02:03:50.946Z,1008.95
2019-02-14T02:04:51.069Z,1008.98
2019-02-14T02:05:51.220Z,1008.95
2019-02-14T02:06:51.330Z,1008.91
2019-02-14T02:07:51.459Z,1008.93
2019-02-14T02:08:51.572Z,1008.94
2019-02-14T02:09:51.698Z,1008.92
2019-02-14T02:10:51.831Z,1008.88
2019-02-14T02:11:51.953Z,1008.88
2019-02-14T02:12:52.081Z,1008.84
2019-02-14T02:13:52.205Z,1008.86
2019-02-14T02:14:52.325Z,1008.84
2019-02-14T02:15:52.450Z,1008.86
2019-02-14T02:16:52.587Z,1008.89
2019-02-14T02:17:52.696Z,1008.88
2019-02-14T02:18:52.818Z,1008.88
2019-02-14T02:19:52.948Z,1008.91
2019-02-14T02:20:53.065Z,1008.88
2019-02-14T02:21:53.187Z,1008.88
2019-02-14T02:22:53.310Z,1008.92
2019-02-14T02:23:53.431Z,1008.91
2019-02-14T02:24:53.555Z,1008.93
2019-02-14T02:25:53.689Z,1008.93
2019-02-14T02:26:53.815Z,1008.93
2019-02-14T02:27:53.936Z,1008.94
2019-02-14T02:28:54.063Z,1008.95
2019-02-14T02:29:54.183Z,1008.89
2019-02-14T02:30:54.311Z,1008.91
2019-02-14T02:31:54.444Z,1008.88
2019-02-14T02:32:54.568Z,1008.90
2019-02-14T02:33:54.739Z,1008.89
2019-02-14T02:34:54.814Z,1008.92
2019-02-14T02:36:00.464Z,1008.85
2019-02-14T02:36:55.054Z,1008.85
2019-02-14T02:37:55.180Z,1008.86
2019-02-14T02:38:55.364Z,1008.91
2019-02-14T02:39:55.488Z,1008.90
2019-02-14T02:40:55.610Z,1008.94
2019-02-14T02:41:55.738Z,1008.96
2019-02-14T02:42:55.876Z,1008.98
2019-02-14T02:43:55.997Z,1008.99
2019-02-14T02:44:56.110Z,1008.96
2019-02-14T02:45:56.238Z,1008.98
2019-02-14T02:46:56.374Z,1008.94
2019-02-14T02:47:56.494Z,1008.94
2019-02-14T02:48:56.622Z,1008.97
2019-02-14T02:49:56.741Z,1008.96
2019-02-14T02:50:56.866Z,1009.05
2019-02-14T02:51:56.992Z,1009.02
2019-02-14T02:52:57.127Z,1009.04
2019-02-14T02:53:57.242Z,1009.08
2019-02-14T02:54:57.369Z,1009.07
2019-02-14T02:55:57.489Z,1009.08
2019-02-14T02:56:57.616Z,1009.08
2019-02-14T02:57:57.735Z,1009.10
2019-02-14T02:58:57.854Z,1009.07
2019-02-14T02:59:57.982Z,1009.02
2019-02-14T03:00:58.110Z,1009.01
2019-02-14T03:01:58.234Z,1009.04
2019-02-14T03:02:58.352Z,1009.00
2019-02-14T03:03:58.476Z,1009.05
2019-02-14T03:04:58.599Z,1009.03
2019-02-14T03:05:58.719Z,1009.00
2019-02-14T03:06:58.847Z,1008.98
2019-02-14T03:07:58.974Z,1008.91
2019-02-14T03:08:59.105Z,1008.89
2019-02-14T03:09:59.227Z,1008.95
2019-02-14T03:10:59.351Z,1008.91
2019-02-14T03:11:59.477Z,1008.91
2019-02-14T03:12:59.602Z,1008.93
2019-02-14T03:13:59.721Z,1008.95
2019-02-14T03:14:59.848Z,1008.95
2019-02-14T03:15:59.975Z,1008.96
2019-02-14T03:17:00.095Z,1008.94
2019-02-14T03:18:00.222Z,1008.98
2019-02-14T03:19:00.349Z,1008.95
2019-02-14T03:20:00.478Z,1008.99
2019-02-14T03:21:00.598Z,1008.98
2019-02-14T03:22:00.716Z,1009.04
2019-02-14T03:23:00.840Z,1009.03
2019-02-14T03:24:00.965Z,1009.02
2019-02-14T03:25:01.088Z,1008.99
2019-02-14T03:26:01.211Z,1009.05
2019-02-14T03:27:01.337Z,1009.08
2019-02-14T03:28:01.458Z,1009.10
2019-02-14T03:29:01.586Z,1009.09
2019-02-14T03:30:01.707Z,1009.10
2019-02-14T03:31:01.861Z,1009.10
2019-02-14T03:32:01.975Z,1009.08
2019-02-14T03:33:02.095Z,1009.12
2019-02-14T03:34:02.216Z,1009.15
2019-02-14T03:35:02.339Z,1009.14
2019-02-14T03:36:02.464Z,1009.17
2019-02-14T03:37:02.586Z,1009.16
2019-02-14T03:38:02.712Z,1009.21
2019-02-14T03:39:02.837Z,1009.18
2019-02-14T03:40:02.960Z,1009.16
2019-02-14T03:41:03.084Z,1009.16
2019-02-14T03:42:03.207Z,1009.15
2019-02-14T03:43:03.339Z,1009.21
2019-02-14T03:44:03.459Z,1009.23
2019-02-14T03:45:03.588Z,1009.23
2019-02-14T03:46:03.710Z,1009.19
2019-02-14T03:47:03.840Z,1009.19
2019-02-14T03:48:03.965Z,1009.18
2019-02-14T03:49:04.095Z,1009.17
2019-02-14T03:50:04.219Z,1009.19
2019-02-14T03:51:04.342Z,1009.19
2019-02-14T03:52:04.466Z,1009.21
2019-02-14T03:53:04.597Z,1009.27
2019-02-14T03:54:04.728Z,1009.25
2019-02-14T03:55:04.849Z,1009.25
2019-02-14T03:56:04.986Z,1009.29
2019-02-14T03:57:05.115Z,1009.35
2019-02-14T03:58:05.227Z,1009.31
2019-02-14T03:59:05.375Z,1009.32
2019-02-14T04:00:05.503Z,1009.33
2019-02-14T04:01:05.632Z,1009.27
2019-02-14T04:02:05.751Z,1009.27
2019-02-14T04:03:05.948Z,1009.27
2019-02-14T04:04:05.941Z,1009.27
2019-02-14T04:05:06.067Z,1009.30
2019-02-14T04:06:06.180Z,1009.27
2019-02-14T04:07:06.305Z,1009.32
2019-02-14T04:08:06.430Z,1009.32
2019-02-14T04:09:06.559Z,1009.30
2019-02-14T04:10:06.684Z,1009.30
2019-02-14T04:11:06.859Z,1009.32
2019-02-14T04:12:06.931Z,1009.29
2019-02-14T04:13:07.060Z,1009.30
2019-02-14T04:14:07.182Z,1009.27
2019-02-14T04:15:07.304Z,1009.28
2019-02-14T04:16:07.435Z,1009.25
2019-02-14T04:17:07.558Z,1009.28
2019-02-14T04:18:07.681Z,1009.29
2019-02-14T04:19:07.805Z,1009.25
2019-02-14T04:20:07.929Z,1009.33
2019-02-14T04:21:08.051Z,1009.31
2019-02-14T04:22:08.182Z,1009.28
2019-02-14T04:23:08.301Z,1009.27
2019-02-14T04:24:08.427Z,1009.33
2019-02-14T04:25:08.547Z,1009.28
2019-02-14T04:26:08.685Z,1009.24
2019-02-14T04:27:08.797Z,1009.26
2019-02-14T04:28:08.924Z,1009.23
2019-02-14T04:29:09.043Z,1009.19
2019-02-14T04:30:09.183Z,1009.19
2019-02-14T04:31:09.299Z,1009.18
2019-02-14T04:32:09.427Z,1009.08
2019-02-14T04:33:09.550Z,1009.14
2019-02-14T04:34:09.670Z,1009.15
2019-02-14T04:35:09.801Z,1009.19
2019-02-14T04:36:09.918Z,1009.14
2019-02-14T04:37:10.050Z,1009.18
2019-02-14T04:38:10.171Z,1009.18
2019-02-14T04:39:10.303Z,1009.14
2019-02-14T04:40:10.420Z,1009.15
2019-02-14T04:41:10.549Z,1009.15
2019-02-14T04:42:10.684Z,1009.17
2019-02-14T04:43:10.798Z,1009.19
2019-02-14T04:44:10.915Z,1009.20
2019-02-14T04:45:11.047Z,1009.21
2019-02-14T04:46:11.164Z,1009.21
2019-02-14T04:47:11.285Z,1009.20
2019-02-14T04:48:11.412Z,1009.19
2019-02-14T04:49:11.557Z,1009.17
2019-02-14T04:50:11.662Z,1009.10
2019-02-14T04:51:11.788Z,1009.15
2019-02-14T04:52:11.915Z,1009.19
2019-02-14T04:53:12.037Z,1009.13
2019-02-14T04:54:12.164Z,1009.18
2019-02-14T04:55:12.290Z,1009.18
2019-02-14T04:56:12.422Z,1009.15
2019-02-14T04:57:12.546Z,1009.13
2019-02-14T04:58:12.667Z,1009.18
2019-02-14T04:59:12.803Z,1009.15
2019-02-14T05:00:12.922Z,1009.11
2019-02-14T05:01:13.040Z,1009.07
2019-02-14T05:02:13.166Z,1009.05
2019-02-14T05:03:13.286Z,1009.02
2019-02-14T05:04:13.422Z,1008.99
2019-02-14T05:05:13.537Z,1009.01
2019-02-14T05:06:13.658Z,1009.06
2019-02-14T05:07:13.783Z,1009.04
2019-02-14T05:08:13.910Z,1009.11
2019-02-14T05:09:14.038Z,1009.15
2019-02-14T05:10:14.161Z,1009.11
2019-02-14T05:11:14.290Z,1009.14
2019-02-14T05:12:14.414Z,1009.17
2019-02-14T05:13:14.535Z,1009.17
2019-02-14T05:14:14.663Z,1009.18
2019-02-14T05:15:14.789Z,1009.14
2019-02-14T05:16:14.917Z,1009.11
2019-02-14T05:17:15.037Z,1009.17
2019-02-14T05:18:15.180Z,1009.16
2019-02-14T05:19:15.291Z,1009.13
2019-02-14T05:20:15.415Z,1009.09
2019-02-14T05:21:15.533Z,1009.07
2019-02-14T05:22:15.671Z,1009.02
2019-02-14T05:23:15.788Z,1009.03
2019-02-14T05:24:15.909Z,1009.00
2019-02-14T05:25:16.031Z,1009.04
2019-02-14T05:26:16.153Z,1009.01
2019-02-14T05:27:16.274Z,1009.04
2019-02-14T05:28:16.417Z,1009.06
2019-02-14T05:29:16.527Z,1009.11
2019-02-14T05:30:16.649Z,1009.06
2019-02-14T05:31:16.770Z,1009.10
2019-02-14T05:32:16.896Z,1009.02
2019-02-14T05:33:17.012Z,1009.04
2019-02-14T05:34:17.138Z,1009.04
2019-02-14T05:35:17.263Z,1009.07
2019-02-14T05:36:17.385Z,1009.12
2019-02-14T05:37:17.502Z,1009.15
2019-02-14T05:38:17.629Z,1009.14
2019-02-14T05:39:17.752Z,1009.19
2019-02-14T05:40:17.877Z,1009.20
2019-02-14T05:41:18.008Z,1009.20
2019-02-14T05:42:18.124Z,1009.23
2019-02-14T05:43:18.252Z,1009.19
2019-02-14T05:44:18.374Z,1009.22
2019-02-14T05:45:18.519Z,1009.22
2019-02-14T05:46:18.630Z,1009.19
2019-02-14T05:47:18.749Z,1009.16
2019-02-14T05:48:18.872Z,1009.19
2019-02-14T05:49:18.998Z,1009.19
2019-02-14T05:50:19.120Z,1009.17
2019-02-14T05:51:19.245Z,1009.18
2019-02-14T05:52:19.367Z,1009.15
2019-02-14T05:53:19.493Z,1009.16
2019-02-14T05:54:19.618Z,1009.14
2019-02-14T05:55:19.746Z,1009.18
2019-02-14T05:56:19.878Z,1009.19
2019-02-14T05:57:19.995Z,1009.16
2019-02-14T05:58:20.129Z,1009.21
2019-02-14T05:59:20.249Z,1009.17
2019-02-14T06:00:20.437Z,1009.21
2019-02-14T06:01:20.518Z,1009.18
2019-02-14T06:02:21.130Z,1009.16
2019-02-14T06:03:20.795Z,1009.16
2019-02-14T06:04:20.914Z,1009.20
2019-02-14T06:05:21.030Z,1009.24
2019-02-14T06:06:21.157Z,1009.28
2019-02-14T06:07:21.284Z,1009.29
2019-02-14T06:08:21.413Z,1009.33
2019-02-14T06:09:21.542Z,1009.31
2019-02-14T06:10:21.667Z,1009.29
2019-02-14T06:11:21.784Z,1009.29
2019-02-14T06:12:21.921Z,1009.30
2019-02-14T06:13:22.033Z,1009.27
2019-02-14T06:14:22.155Z,1009.27
2019-02-14T06:15:22.272Z,1009.31
2019-02-14T06:16:23.398Z,1009.32
2019-02-14T06:17:22.524Z,1009.36
2019-02-14T06:18:22.647Z,1009.41
2019-02-14T06:19:22.765Z,1009.38
2019-02-14T06:20:22.890Z,1009.46
2019-02-14T06:21:23.016Z,1009.42
2019-02-14T06:22:23.146Z,1009.39
2019-02-14T06:23:23.267Z,1009.43
2019-02-14T06:24:23.388Z,1009.43
2019-02-14T06:25:23.515Z,1009.43
2019-02-14T06:26:23.637Z,1009.52
2019-02-14T06:27:23.771Z,1009.49
2019-02-14T06:28:23.893Z,1009.50
2019-02-14T06:29:24.022Z,1009.51
2019-02-14T06:30:24.141Z,1009.54
2019-02-14T06:31:24.266Z,1009.60
2019-02-14T06:32:24.391Z,1009.65
2019-02-14T06:33:24.515Z,1009.71
2019-02-14T06:34:24.639Z,1009.73
2019-02-14T06:35:24.762Z,1009.72
2019-02-14T06:36:24.885Z,1009.67
2019-02-14T06:37:25.014Z,1009.72
2019-02-14T06:38:25.139Z,1009.68
2019-02-14T06:39:25.258Z,1009.71
2019-02-14T06:40:25.385Z,1009.71
2019-02-14T06:41:25.507Z,1009.71
2019-02-14T06:42:25.631Z,1009.75
2019-02-14T06:43:25.758Z,1009.78
2019-02-14T06:44:25.884Z,1009.73
2019-02-14T06:45:26.010Z,1009.76
2019-02-14T06:46:26.133Z,1009.82
2019-02-14T06:47:26.264Z,1009.82
2019-02-14T06:48:26.386Z,1009.83
2019-02-14T06:49:26.515Z,1009.85
2019-02-14T06:50:34.439Z,1009.81
2019-02-14T06:51:26.746Z,1009.83
2019-02-14T06:52:26.872Z,1009.88
2019-02-14T06:53:26.993Z,1009.87
2019-02-14T06:54:27.119Z,1009.95
2019-02-14T06:55:27.259Z,1009.94
2019-02-14T06:56:27.367Z,1010.02
2019-02-14T06:57:27.488Z,1009.99
2019-02-14T06:58:27.610Z,1010.03
2019-02-14T06:59:27.735Z,1010.11
2019-02-14T07:00:27.860Z,1010.06
2019-02-14T07:01:27.984Z,1010.07
2019-02-14T07:02:28.112Z,1010.04
2019-02-14T07:03:28.241Z,1010.08
2019-02-14T07:04:28.363Z,1010.10
2019-02-14T07:05:28.487Z,1010.03
2019-02-14T07:06:28.613Z,1010.07
2019-02-14T07:07:28.736Z,1010.10
2019-02-14T07:08:28.866Z,1010.13
2019-02-14T07:09:28.995Z,1010.09
2019-02-14T07:10:29.118Z,1010.13
2019-02-14T07:11:29.232Z,1010.15
2019-02-14T07:12:29.383Z,1010.12
2019-02-14T07:13:29.481Z,1010.17
2019-02-14T07:14:29.605Z,1010.17
2019-02-14T07:15:29.732Z,1010.18
2019-02-14T07:16:29.858Z,1010.22
2019-02-14T07:17:29.981Z,1010.25
2019-02-14T07:18:30.103Z,1010.25
2019-02-14T07:19:30.227Z,1010.32
2019-02-14T07:20:30.353Z,1010.27
2019-02-14T07:21:30.476Z,1010.33
2019-02-14T07:22:30.597Z,1010.40
2019-02-14T07:23:30.716Z,1010.36
2019-02-14T07:24:30.850Z,1010.42
2019-02-14T07:25:30.970Z,1010.39
2019-02-14T07:26:31.092Z,1010.36
2019-02-14T07:27:31.213Z,1010.31
2019-02-14T07:28:31.336Z,1010.34
2019-02-14T07:29:31.455Z,1010.31
2019-02-14T07:30:31.578Z,1010.28
2019-02-14T07:31:31.708Z,1010.25
2019-02-14T07:32:31.824Z,1010.20
2019-02-14T07:33:31.950Z,1010.27
2019-02-14T07:34:32.072Z,1010.27
2019-02-14T07:35:32.198Z,1010.22
2019-02-14T07:36:32.327Z,1010.27
2019-02-14T07:37:32.445Z,1010.25
2019-02-14T07:38:32.564Z,1010.30
2019-02-14T07:39:32.700Z,1010.31
2019-02-14T07:40:32.816Z,1010.40
2019-02-14T07:41:32.942Z,1010.38
2019-02-14T07:42:33.065Z,1010.40
2019-02-14T07:43:33.204Z,1010.37
2019-02-14T07:44:33.330Z,1010.41
2019-02-14T07:45:33.449Z,1010.43
2019-02-14T07:46:33.578Z,1010.45
2019-02-14T07:47:33.697Z,1010.46
2019-02-14T07:48:33.821Z,1010.54
2019-02-14T07:49:33.951Z,1010.53
2019-02-14T07:50:34.071Z,1010.56
2019-02-14T07:51:34.200Z,1010.58
2019-02-14T07:52:34.329Z,1010.59
2019-02-14T07:53:34.452Z,1010.60
2019-02-14T07:54:34.570Z,1010.59
2019-02-14T07:55:34.708Z,1010.56
2019-02-14T07:56:34.832Z,1010.54
2019-02-14T07:57:34.959Z,1010.51
2019-02-14T07:58:35.083Z,1010.45
2019-02-14T07:59:35.216Z,1010.44
2019-02-14T08:00:35.346Z,1010.44
2019-02-14T08:01:35.467Z,1010.49
2019-02-14T08:02:35.591Z,1010.53
2019-02-14T08:03:35.716Z,1010.59
2019-02-14T08:04:35.834Z,1010.59
2019-02-14T08:05:35.956Z,1010.57
2019-02-14T08:06:36.076Z,1010.56
2019-02-14T08:07:36.377Z,1010.53
2019-02-14T08:08:36.327Z,1010.54
2019-02-14T08:09:36.452Z,1010.57
2019-02-14T08:10:36.575Z,1010.51
2019-02-14T08:11:36.701Z,1010.56
2019-02-14T08:12:36.825Z,1010.55
2019-02-14T08:13:36.955Z,1010.52
2019-02-14T08:14:37.079Z,1010.58
2019-02-14T08:15:37.213Z,1010.46
2019-02-14T08:16:37.339Z,1010.47
2019-02-14T08:17:37.459Z,1010.52
2019-02-14T08:18:37.585Z,1010.49
2019-02-14T08:19:37.710Z,1010.46
2019-02-14T08:20:37.845Z,1010.44
2019-02-14T08:21:37.971Z,1010.40
2019-02-14T08:22:38.096Z,1010.44
2019-02-14T08:23:38.213Z,1010.44
2019-02-14T08:24:38.340Z,1010.44
2019-02-14T08:25:38.465Z,1010.43
2019-02-14T08:26:38.596Z,1010.43
2019-02-14T08:27:38.720Z,1010.46
2019-02-14T08:28:38.840Z,1010.43
2019-02-14T08:29:38.970Z,1010.43
2019-02-14T08:30:39.091Z,1010.41
2019-02-14T08:31:39.221Z,1010.46
2019-02-14T08:32:39.349Z,1010.48
2019-02-14T08:33:39.474Z,1010.45
2019-02-14T08:34:39.601Z,1010.41
2019-02-14T08:35:39.729Z,1010.42
2019-02-14T08:36:39.855Z,1010.46
2019-02-14T08:37:45.394Z,1010.41
2019-02-14T08:38:40.125Z,1010.48
2019-02-14T08:39:40.247Z,1010.52
2019-02-14T08:40:40.374Z,1010.52
2019-02-14T08:41:40.495Z,1010.51
2019-02-14T08:42:40.618Z,1010.47
2019-02-14T08:43:40.740Z,1010.42
2019-02-14T08:44:40.869Z,1010.41
2019-02-14T08:45:40.999Z,1010.42
2019-02-14T08:46:41.123Z,1010.40
2019-02-14T08:47:41.244Z,1010.42
2019-02-14T08:48:41.375Z,1010.33
2019-02-14T08:49:41.511Z,1010.39
2019-02-14T08:50:41.635Z,1010.35
2019-02-14T08:51:41.760Z,1010.40
2019-02-14T08:52:41.882Z,1010.41
2019-02-14T08:53:42.012Z,1010.38
2019-02-14T08:54:42.135Z,1010.37
2019-02-14T08:55:42.260Z,1010.38
2019-02-14T08:56:42.399Z,1010.34
2019-02-14T08:57:42.507Z,1010.35
2019-02-14T08:58:42.640Z,1010.32
2019-02-14T08:59:42.762Z,1010.29
2019-02-14T09:00:42.889Z,1010.29
2019-02-14T09:01:43.019Z,1010.30
2019-02-14T09:02:43.138Z,1010.29
2019-02-14T09:03:43.268Z,1010.30
2019-02-14T09:04:43.389Z,1010.33
2019-02-14T09:05:43.520Z,1010.39
2019-02-14T09:06:43.637Z,1010.44
2019-02-14T09:07:43.764Z,1010.42
2019-02-14T09:08:43.891Z,1010.41
2019-02-14T09:09:44.023Z,1010.40
2019-02-14T09:10:44.162Z,1010.36
2019-02-14T09:11:44.271Z,1010.35
2019-02-14T09:12:44.397Z,1010.27
2019-02-14T09:13:44.520Z,1010.27
2019-02-14T09:14:44.649Z,1010.23
2019-02-14T09:15:44.778Z,1010.24
2019-02-14T09:16:44.896Z,1010.24
2019-02-14T09:17:45.025Z,1010.25
2019-02-14T09:18:45.162Z,1010.27
2019-02-14T09:19:45.274Z,1010.23
2019-02-14T09:20:45.395Z,1010.26
2019-02-14T09:21:45.522Z,1010.24
2019-02-14T09:22:45.653Z,1010.30
2019-02-14T09:23:45.773Z,1010.36
2019-02-14T09:24:45.899Z,1010.42
2019-02-14T09:25:46.030Z,1010.42
2019-02-14T09:26:46.161Z,1010.45
2019-02-14T09:27:46.292Z,1010.45
2019-02-14T09:28:46.416Z,1010.38
2019-02-14T09:29:46.549Z,1010.39
2019-02-14T09:30:46.670Z,1010.36
2019-02-14T09:31:46.798Z,1010.35
2019-02-14T09:32:46.923Z,1010.35
2019-02-14T09:33:47.057Z,1010.39
2019-02-14T09:34:47.188Z,1010.35
2019-02-14T09:35:47.318Z,1010.38
2019-02-14T09:36:47.430Z,1010.37
2019-02-14T09:37:47.556Z,1010.40
2019-02-14T09:38:47.696Z,1010.43
2019-02-14T09:39:47.812Z,1010.43
2019-02-14T09:40:47.954Z,1010.43
2019-02-14T09:41:48.059Z,1010.43
2019-02-14T09:42:48.193Z,1010.44
2019-02-14T09:43:48.323Z,1010.45
2019-02-14T09:44:48.450Z,1010.42
2019-02-14T09:45:48.591Z,1010.43
2019-02-14T09:46:48.698Z,1010.42
2019-02-14T09:47:48.831Z,1010.43
2019-02-14T09:48:48.952Z,1010.44
2019-02-14T09:49:49.085Z,1010.44
2019-02-14T09:50:49.202Z,1010.39
2019-02-14T09:51:49.337Z,1010.42
2019-02-14T09:52:49.483Z,1010.39
2019-02-14T09:53:49.592Z,1010.39
2019-02-14T09:54:49.715Z,1010.42
2019-02-14T09:55:49.857Z,1010.43
2019-02-14T09:56:49.983Z,1010.41
2019-02-14T09:57:50.115Z,1010.36
2019-02-14T09:58:50.286Z,1010.43
2019-02-14T09:59:50.351Z,1010.37
2019-02-14T10:00:50.479Z,1010.41
2019-02-14T10:01:50.605Z,1010.42
2019-02-14T10:02:50.726Z,1010.41
2019-02-14T10:03:50.880Z,1010.43
2019-02-14T10:04:50.974Z,1010.45
2019-02-14T10:05:51.102Z,1010.51
2019-02-14T10:06:51.227Z,1010.47
2019-02-14T10:07:51.361Z,1010.47
2019-02-14T10:08:51.484Z,1010.46
2019-02-14T10:09:51.612Z,1010.45
2019-02-14T10:10:51.730Z,1010.43
2019-02-14T10:11:51.901Z,1010.46
2019-02-14T10:12:52.004Z,1010.50
2019-02-14T10:13:52.133Z,1010.46
2019-02-14T10:14:52.249Z,1010.46
2019-02-14T10:15:52.384Z,1010.48
2019-02-14T10:16:52.509Z,1010.46
2019-02-14T10:17:52.631Z,1010.44
2019-02-14T10:18:52.767Z,1010.46
2019-02-14T10:19:53.622Z,1010.42
2019-02-14T10:20:52.972Z,1010.41
2019-02-14T10:21:53.102Z,1010.38
2019-02-14T10:22:53.229Z,1010.36
2019-02-14T10:23:53.361Z,1010.32
2019-02-14T10:24:53.484Z,1010.32
2019-02-14T10:25:53.611Z,1010.31
2019-02-14T10:26:53.737Z,1010.32
2019-02-14T10:27:53.864Z,1010.40
2019-02-14T10:28:53.989Z,1010.41
2019-02-14T10:29:54.116Z,1010.47
2019-02-14T10:30:54.250Z,1010.49
2019-02-14T10:31:54.372Z,1010.47
2019-02-14T10:32:54.515Z,1010.47
2019-02-14T10:33:54.641Z,1010.42
2019-02-14T10:34:54.769Z,1010.31
2019-02-14T10:35:54.893Z,1010.30
2019-02-14T10:36:55.028Z,1010.31
2019-02-14T10:37:55.156Z,1010.25
2019-02-14T10:38:55.292Z,1010.24
2019-02-14T10:39:55.417Z,1010.25
2019-02-14T10:40:55.551Z,1010.28
2019-02-14T10:41:55.675Z,1010.27
2019-02-14T10:42:55.808Z,1010.31
2019-02-14T10:43:55.949Z,1010.31
2019-02-14T10:44:56.084Z,1010.29
2019-02-14T10:45:56.317Z,1010.26
2019-02-14T10:46:56.379Z,1010.27
2019-02-14T10:47:56.504Z,1010.31
2019-02-14T10:48:56.632Z,1010.29
2019-02-14T10:49:56.766Z,1010.32
2019-02-14T10:50:56.897Z,1010.37
2019-02-14T10:51:57.029Z,1010.36
2019-02-14T10:52:57.162Z,1010.39
2019-02-14T10:53:57.299Z,1010.37
2019-02-14T10:54:57.424Z,1010.35
2019-02-14T10:55:57.556Z,1010.40
2019-02-14T10:56:57.689Z,1010.38
2019-02-14T10:57:57.821Z,1010.39
2019-02-14T10:58:59.113Z,1010.40
2019-02-14T10:59:58.085Z,1010.44
2019-02-14T11:00:58.217Z,1010.43
2019-02-14T11:01:58.339Z,1010.49
2019-02-14T11:02:58.479Z,1010.51
2019-02-14T11:03:58.604Z,1010.50
2019-02-14T11:04:58.731Z,1010.46
2019-02-14T11:05:58.869Z,1010.46
2019-02-14T11:06:58.994Z,1010.40
2019-02-14T11:07:59.125Z,1010.46
2019-02-14T11:08:59.261Z,1010.38
2019-02-14T11:09:59.398Z,1010.41
2019-02-14T11:10:59.543Z,1010.40
2019-02-14T11:11:59.675Z,1010.37
2019-02-14T11:12:59.793Z,1010.41
2019-02-14T11:13:59.918Z,1010.43
2019-02-14T11:15:00.106Z,1010.44
2019-02-14T11:16:00.186Z,1010.46
2019-02-14T11:17:00.310Z,1010.44
2019-02-14T11:18:00.452Z,1010.44
2019-02-14T11:19:00.576Z,1010.40
2019-02-14T11:20:00.695Z,1010.44
2019-02-14T11:21:00.860Z,1010.41
2019-02-14T11:22:00.993Z,1010.36
2019-02-14T11:23:01.120Z,1010.42
2019-02-14T11:24:01.240Z,1010.42
2019-02-14T11:25:01.385Z,1010.48
2019-02-14T11:26:01.518Z,1010.50
2019-02-14T11:27:01.645Z,1010.49
2019-02-14T11:28:01.765Z,1010.46
2019-02-14T11:29:01.900Z,1010.47
2019-02-14T11:30:02.033Z,1010.47
2019-02-14T11:31:02.170Z,1010.46
2019-02-14T11:32:02.296Z,1010.51
2019-02-14T11:33:02.443Z,1010.50
2019-02-14T11:34:02.619Z,1010.59
2019-02-14T11:35:02.691Z,1010.52
2019-02-14T11:36:02.825Z,1010.50
2019-02-14T11:37:02.958Z,1010.51
2019-02-14T11:38:03.095Z,1010.52
2019-02-14T11:39:03.230Z,1010.62
2019-02-14T11:40:03.367Z,1010.60
2019-02-14T11:41:03.510Z,1010.55
2019-02-14T11:42:03.637Z,1010.57
2019-02-14T11:43:03.774Z,1010.62
2019-02-14T11:44:03.909Z,1010.58
2019-02-14T11:45:04.038Z,1010.62
2019-02-14T11:46:04.173Z,1010.63
2019-02-14T11:47:04.308Z,1010.73
2019-02-14T11:48:04.448Z,1010.74
2019-02-14T11:49:04.570Z,1010.76
2019-02-14T11:50:06.557Z,1010.79
2019-02-14T11:51:04.848Z,1010.83
2019-02-14T11:52:04.989Z,1010.78
2019-02-14T11:53:13.891Z,1010.79
2019-02-14T11:54:05.253Z,1010.82
2019-02-14T11:55:05.410Z,1010.80
2019-02-14T11:56:05.549Z,1010.75
2019-02-14T11:57:05.686Z,1010.74
2019-02-14T11:58:05.838Z,1010.71
2019-02-14T11:59:05.977Z,1010.62
2019-02-14T12:00:06.108Z,1010.57
2019-02-14T12:01:06.247Z,1010.52
2019-02-14T12:02:06.388Z,1010.51
2019-02-14T12:03:06.533Z,1010.42
2019-02-14T12:04:06.679Z,1010.34
2019-02-14T12:05:06.823Z,1010.30
2019-02-14T12:06:06.970Z,1010.22
2019-02-14T12:07:07.110Z,1010.14